Time;durP1;ratioP1;P1;durP2;ratioP2;P2;SDS_P1;SDS_P2;PMS_P1;PMS_P2;Temp;Humidity;BMP_temperature;BMP_pressure;BME280_temperature;BME280_humidity;BME280_pressure;Samples;Min_cycle;Max_cycle;Signal;HPM_P1;HPM_P2
2021/07/04 00:02:21;;;;;;;23.30;14.47;;;;;15.90;100703.00;;;;10479480;28;20235;-77
2021/07/04 00:07:23;;;;;;;31.67;15.63;;;;;15.90;100689.00;;;;10463103;28;20217;-76
2021/07/04 00:12:25;;;;;;;25.33;16.03;;;;;15.80;100697.00;;;;10479318;28;20683;-76
2021/07/04 00:17:27;;;;;;;25.23;15.57;;;;;15.80;100690.00;;;;10446341;28;20201;-76
2021/07/04 00:22:28;;;;;;;25.33;16.17;;;;;15.80;100693.00;;;;10467457;28;20250;-76
2021/07/04 00:27:30;;;;;;;24.70;16.10;;;;;15.80;100686.00;;;;10504150;28;20205;-76
2021/07/04 00:32:32;;;;;;;27.53;15.67;;;;;15.70;100693.00;;;;10503108;28;20258;-76
2021/07/04 00:37:34;;;;;;;26.80;16.40;;;;;15.70;100675.00;;;;10504014;28;20196;-76
2021/07/04 00:42:41;;;;;;;26.53;14.83;;;;;15.60;100671.00;;;;10488599;28;20651;-76
2021/07/04 00:47:45;;;;;;;29.03;16.93;;;;;15.50;100675.00;;;;10470970;28;20910;-76
2021/07/04 00:52:51;;;;;;;61.27;29.77;;;;;15.40;100680.00;;;;10520342;28;20193;-76
2021/07/04 00:57:55;;;;;;;67.70;30.87;;;;;15.60;100680.00;;;;10503477;28;20185;-76
2021/07/04 01:02:57;;;;;;;62.47;31.77;;;;;15.70;100682.00;;;;10488889;28;20284;-77
2021/07/04 01:08:02;;;;;;;57.97;30.00;;;;;15.70;100679.00;;;;10473586;28;20224;-77
2021/07/04 01:13:06;;;;;;;66.77;30.97;;;;;15.80;100671.00;;;;10513878;28;20239;-77
2021/07/04 01:18:11;;;;;;;66.13;32.03;;;;;15.80;100662.00;;;;10531753;28;20189;-77
2021/07/04 01:23:23;;;;;;;69.50;32.63;;;;;15.80;100675.00;;;;10499056;28;20543;-77
2021/07/04 01:28:25;;;;;;;67.00;30.83;;;;;15.80;100678.00;;;;10513695;28;20208;-78
2021/07/04 01:33:31;;;;;;;70.07;33.00;;;;;16.00;100672.00;;;;10497110;28;20244;-78
2021/07/04 01:38:34;;;;;;;74.53;35.97;;;;;16.10;100670.00;;;;10512967;28;20648;-77
2021/07/04 01:43:39;;;;;;;66.57;33.77;;;;;16.20;100662.00;;;;10478449;28;20204;-77
2021/07/04 01:48:41;;;;;;;66.47;34.67;;;;;16.30;100660.00;;;;10470904;28;20205;-77
2021/07/04 01:53:48;;;;;;;68.73;31.27;;;;;16.30;100663.00;;;;10502815;28;20181;-77
2021/07/04 01:58:55;;;;;;;59.80;31.57;;;;;16.40;100658.00;;;;10511898;28;20601;-77
2021/07/04 02:04:06;;;;;;;63.67;31.23;;;;;16.40;100652.00;;;;10528764;28;20193;-77
2021/07/04 02:09:10;;;;;;;52.70;29.13;;;;;16.40;100645.00;;;;10512379;28;20671;-77
2021/07/04 02:14:13;;;;;;;50.58;29.05;;;;;16.30;100652.00;;;;10512224;28;20185;-77
2021/07/04 02:19:40;;;;;;;69.30;30.55;;;;;16.20;100648.00;;;;10537821;28;20202;-77
2021/07/04 02:25:20;;;;;;;52.77;27.73;;;;;16.20;100642.00;;;;10497537;28;20287;-77
2021/07/04 02:30:24;;;;;;;60.03;31.33;;;;;16.20;100646.00;;;;10495041;28;20220;-77
2021/07/04 02:35:32;;;;;;;69.37;32.53;;;;;16.20;100641.00;;;;10510413;28;20262;-77
2021/07/04 02:40:36;;;;;;;63.60;32.10;;;;;16.20;100646.00;;;;10527745;28;20197;-77
2021/07/04 02:45:42;;;;;;;70.50;34.07;;;;;16.20;100650.00;;;;10494100;28;20189;-77
2021/07/04 02:50:51;;;;;;;62.13;32.07;;;;;16.30;100642.00;;;;10494486;28;20739;-77
2021/07/04 02:56:01;;;;;;;65.77;33.57;;;;;16.30;100649.00;;;;10462047;28;20204;-77
2021/07/04 03:01:09;;;;;;;56.80;30.70;;;;;16.30;100648.00;;;;10469898;28;20240;-77
2021/07/04 03:06:12;;;;;;;56.97;31.43;;;;;16.30;100654.00;;;;10451208;28;20194;-77
2021/07/04 03:11:16;;;;;;;53.23;29.93;;;;;16.30;100643.00;;;;10467566;28;20255;-77
2021/07/04 03:16:18;;;;;;;63.80;32.20;;;;;16.40;100636.00;;;;10468370;28;20585;-77
2021/07/04 03:21:23;;;;;;;56.85;31.73;;;;;16.40;100624.00;;;;10468070;28;20195;-77
2021/07/04 03:26:27;;;;;;;55.97;30.33;;;;;16.40;100619.00;;;;10451223;28;20213;-77
2021/07/04 03:31:32;;;;;;;55.97;31.48;;;;;16.40;100621.00;;;;10450742;28;20197;-77
2021/07/04 03:36:36;;;;;;;60.53;31.27;;;;;16.40;100614.00;;;;10466551;28;20542;-77
2021/07/04 03:41:44;;;;;;;54.60;31.33;;;;;16.40;100611.00;;;;10466605;28;20205;-77
2021/07/04 03:46:46;;;;;;;51.37;29.90;;;;;16.40;100616.00;;;;10462589;28;20192;-77
2021/07/04 03:51:50;;;;;;;52.00;29.13;;;;;16.40;100615.00;;;;10491695;28;20205;-76
2021/07/04 03:56:52;;;;;;;53.97;29.53;;;;;16.40;100606.00;;;;10475688;28;20620;-76
2021/07/04 04:01:54;;;;;;;55.33;28.92;;;;;16.60;100624.00;;;;10466319;28;20240;-77
2021/07/04 04:06:56;;;;;;;48.25;28.13;;;;;16.60;100631.00;;;;10465827;28;20210;-77
2021/07/04 04:11:58;;;;;;;50.50;28.50;;;;;16.70;100632.00;;;;10449551;28;20190;-77
2021/07/04 04:17:08;;;;;;;55.67;29.48;;;;;16.90;100622.00;;;;10481742;28;20231;-77
2021/07/04 04:22:15;;;;;;;52.53;29.65;;;;;17.10;100634.00;;;;10449674;28;20201;-77
2021/07/04 04:27:21;;;;;;;47.70;28.05;;;;;17.20;100637.00;;;;10481619;28;20232;-77
2021/07/04 04:32:23;;;;;;;42.75;25.58;;;;;17.20;100636.00;;;;10464941;28;20210;-77
2021/07/04 04:37:27;;;;;;;52.50;27.80;;;;;17.40;100642.00;;;;10465432;28;20189;-77
2021/07/04 04:42:29;;;;;;;44.70;25.30;;;;;17.70;100631.00;;;;10465849;28;20196;-77
2021/07/04 04:47:31;;;;;;;47.85;26.55;;;;;17.70;100633.00;;;;10454305;28;20216;-77
2021/07/04 04:52:33;;;;;;;45.47;27.05;;;;;17.80;100642.00;;;;10511798;28;20189;-77
2021/07/04 04:57:36;;;;;;;43.58;26.98;;;;;18.00;100638.00;;;;10514538;28;20225;-78
2021/07/04 05:02:39;;;;;;;40.30;24.90;;;;;18.20;100643.00;;;;10479425;28;20203;-77
2021/07/04 05:07:41;;;;;;;41.92;25.05;;;;;18.30;100628.00;;;;10514045;28;20216;-77
2021/07/04 05:12:44;;;;;;;37.65;24.98;;;;;18.60;100630.00;;;;10548879;28;20273;-77
2021/07/04 05:17:47;;;;;;;44.78;26.70;;;;;19.10;100636.00;;;;10497709;28;20211;-77
2021/07/04 05:22:51;;;;;;;33.97;22.75;;;;;19.80;100655.00;;;;10488704;28;20648;-77
2021/07/04 05:27:53;;;;;;;29.90;20.38;;;;;20.10;100649.00;;;;10458954;28;20550;-77
2021/07/04 05:32:55;;;;;;;22.88;15.95;;;;;20.80;100654.00;;;;10502958;28;20224;-77
2021/07/04 05:37:56;;;;;;;18.17;13.88;;;;;21.60;100662.00;;;;10498694;28;20206;-77
2021/07/04 05:42:58;;;;;;;10.32;9.20;;;;;22.40;100643.00;;;;10504827;28;20231;-77
2021/07/04 05:48:01;;;;;;;10.82;8.35;;;;;22.40;100642.00;;;;10470349;28;20256;-77
2021/07/04 05:53:03;;;;;;;11.73;7.88;;;;;22.20;100633.00;;;;10497121;28;20602;-78
2021/07/04 05:58:05;;;;;;;8.32;7.47;;;;;22.10;100627.00;;;;10512842;28;20196;-78
2021/07/04 06:03:07;;;;;;;8.50;7.57;;;;;22.60;100627.00;;;;10510833;28;20661;-78
2021/07/04 06:08:09;;;;;;;7.40;6.65;;;;;22.30;100626.00;;;;10486854;28;20255;-78
2021/07/04 06:13:11;;;;;;;8.85;6.60;;;;;22.80;100619.00;;;;10503760;28;20616;-78
2021/07/04 06:18:14;;;;;;;6.95;6.35;;;;;23.30;100613.00;;;;10454477;28;20285;-78
2021/07/04 06:23:16;;;;;;;8.23;7.07;;;;;23.60;100589.00;;;;10481992;28;20640;-78
2021/07/04 06:28:18;;;;;;;6.82;6.20;;;;;23.80;100578.00;;;;10495269;28;20212;-77
2021/07/04 06:33:19;;;;;;;7.90;5.25;;;;;23.60;100586.00;;;;10470703;28;20271;-78
2021/07/04 06:38:21;;;;;;;7.03;6.32;;;;;23.20;100582.00;;;;10470998;28;20209;-79
2021/07/04 06:43:23;;;;;;;5.78;5.18;;;;;22.70;100598.00;;;;10471539;28;20193;-79
2021/07/04 06:48:27;;;;;;;5.80;5.30;;;;;22.50;100594.00;;;;10486860;28;20297;-79
2021/07/04 06:53:29;;;;;;;6.53;5.90;;;;;24.00;100564.00;;;;10480602;28;20245;-78
2021/07/04 06:58:31;;;;;;;9.27;5.47;;;;;25.20;100551.00;;;;10557845;28;20697;-78
2021/07/04 07:03:34;;;;;;;6.35;4.72;;;;;25.70;100543.00;;;;10527625;28;20169;-78
2021/07/04 07:08:37;;;;;;;6.45;5.30;;;;;25.00;100538.00;;;;10493872;28;20204;-78
2021/07/04 07:13:39;;;;;;;6.85;4.90;;;;;24.70;100538.00;;;;10510145;28;20185;-78
2021/07/04 07:18:41;;;;;;;6.03;4.55;;;;;23.90;100543.00;;;;10510145;28;20192;-79
2021/07/04 07:23:49;;;;;;;5.38;4.88;;;;;23.60;100542.00;;;;10462513;28;20193;-77
2021/07/04 07:28:51;;;;;;;7.25;5.57;;;;;24.40;100518.00;;;;10484826;28;20669;-77
2021/07/04 07:33:53;;;;;;;7.55;5.30;;;;;25.00;100511.00;;;;10467670;28;20742;-78
2021/07/04 07:38:58;;;;;;;4.97;4.55;;;;;25.00;100525.00;;;;10492812;28;20655;-78
2021/07/04 07:44:07;;;;;;;4.50;4.10;;;;;25.10;100524.00;;;;10489313;28;20193;-78
2021/07/04 07:49:10;;;;;;;6.15;4.65;;;;;25.00;100506.00;;;;10499806;28;20201;-78
2021/07/04 07:54:20;;;;;;;4.53;4.15;;;;;24.90;100504.00;;;;10524873;28;20607;-78
2021/07/04 07:59:22;;;;;;;4.10;3.70;;;;;24.60;100510.00;;;;10508378;28;20197;-78
2021/07/04 08:04:25;;;;;;;3.80;3.50;;;;;24.40;100500.00;;;;10482486;28;20264;-78
2021/07/04 08:09:27;;;;;;;4.80;4.40;;;;;24.40;100501.00;;;;10467574;28;20702;-77
2021/07/04 08:14:29;;;;;;;4.03;3.67;;;;;24.70;100497.00;;;;10467085;28;20196;-77
2021/07/04 08:19:37;;;;;;;3.83;3.42;;;;;24.60;100495.00;;;;10450160;28;20189;-78
2021/07/04 08:24:39;;;;;;;4.63;3.80;;;;;24.30;100488.00;;;;10466089;28;20264;-77
2021/07/04 08:29:40;;;;;;;3.85;3.42;;;;;24.50;100494.00;;;;10466288;28;20603;-77
2021/07/04 08:34:42;;;;;;;3.85;3.13;;;;;25.20;100479.00;;;;10482428;28;20213;-77
2021/07/04 08:39:44;;;;;;;4.68;3.22;;;;;25.20;100481.00;;;;10449721;28;20197;-77
2021/07/04 08:44:51;;;;;;;3.63;3.33;;;;;25.00;100464.00;;;;10466612;28;20193;-78
2021/07/04 08:49:54;;;;;;;4.45;3.22;;;;;24.80;100462.00;;;;10482723;28;20220;-77
2021/07/04 08:54:57;;;;;;;4.55;3.03;;;;;24.80;100464.00;;;;10482042;28;20189;-77
2021/07/04 08:59:59;;;;;;;3.47;3.08;;;;;24.90;100461.00;;;;10449188;28;20198;-77
2021/07/04 09:05:12;;;;;;;2.63;2.42;;;;;25.10;100452.00;;;;10466377;28;20247;-77
2021/07/04 09:10:18;;;;;;;4.30;2.53;;;;;25.20;100455.00;;;;10482536;28;20206;-78
2021/07/04 09:15:22;;;;;;;4.05;2.70;;;;;24.90;100443.00;;;;10465848;28;20190;-78
2021/07/04 09:20:30;;;;;;;4.07;2.22;;;;;24.80;100446.00;;;;10449038;28;20185;-78
2021/07/04 09:25:37;;;;;;;5.75;3.25;;;;;24.80;100445.00;;;;10482116;28;20198;-78
2021/07/04 09:30:50;;;;;;;3.65;2.65;;;;;24.90;100440.00;;;;10449831;28;20217;-78
2021/07/04 09:35:55;;;;;;;3.63;2.40;;;;;25.00;100422.00;;;;10489304;28;20216;-78
2021/07/04 09:40:57;;;;;;;2.72;2.40;;;;;25.00;100425.00;;;;10488863;28;20205;-78
2021/07/04 09:46:01;;;;;;;6.25;2.65;;;;;25.20;100410.00;;;;10471488;28;20260;-78
2021/07/04 09:51:22;;;;;;;5.35;3.03;;;;;25.60;100401.00;;;;10488443;28;20259;-77
2021/07/04 09:56:26;;;;;;;2.45;2.25;;;;;26.00;100387.00;;;;10473186;28;20644;-78
2021/07/04 10:01:53;;;;;;;3.08;2.40;;;;;26.10;100388.00;;;;10471652;28;20197;-77
2021/07/04 10:06:56;;;;;;;3.67;2.95;;;;;26.00;100384.00;;;;10471124;28;20637;-78
2021/07/04 10:11:58;;;;;;;2.65;2.38;;;;;25.90;100374.00;;;;10472720;28;20217;-77
2021/07/04 10:17:01;;;;;;;2.85;2.50;;;;;25.70;100388.00;;;;10528332;28;20242;-77
2021/07/04 10:22:03;;;;;;;3.15;2.92;;;;;25.00;100412.00;;;;10510549;28;20177;-77
2021/07/04 10:27:10;;;;;;;5.30;4.30;;;;;23.40;100427.00;;;;10478103;28;20197;-77
2021/07/04 10:32:13;;;;;;;4.75;3.95;;;;;22.50;100420.00;;;;10485853;28;20217;-78
2021/07/04 10:37:29;;;;;;;5.00;4.60;;;;;21.80;100437.00;;;;10485845;28;20197;-78
2021/07/04 10:42:37;;;;;;;17.42;5.43;;;;;20.90;100455.00;;;;10469562;28;20193;-80
2021/07/04 10:47:39;;;;;;;9.82;2.10;;;;;19.60;100575.00;;;;10475219;28;20652;-83
2021/07/04 10:52:50;;;;;;;4.28;1.20;;;;;17.30;100555.00;;;;10456940;28;20200;-83
2021/07/04 10:57:55;;;;;;;2.83;0.80;;;;;15.90;100547.00;;;;10491300;28;20597;-83
2021/07/04 11:03:01;;;;;;;0.93;0.50;;;;;15.20;100555.00;;;;10496123;28;20397;-82
2021/07/04 11:08:20;;;;;;;1.00;0.57;;;;;15.00;100567.00;;;;10494366;28;20201;-81
2021/07/04 11:13:49;;;;;;;2.13;0.63;;;;;15.00;100535.00;;;;10477748;28;20533;-80
2021/07/04 11:18:54;;;;;;;5.53;0.73;;;;;15.20;100525.00;;;;10498248;28;20201;-80
2021/07/04 11:24:35;;;;;;;6.73;1.00;;;;;16.00;100506.00;;;;10468669;28;20201;-80
2021/07/04 11:29:37;;;;;;;0.87;0.70;;;;;16.70;100516.00;;;;10301393;28;20235;-79
2021/07/04 11:34:50;;;;;;;4.90;1.10;;;;;17.10;100503.00;;;;10448980;28;20711;-80
2021/07/04 11:39:57;;;;;;;2.30;0.70;;;;;17.30;100496.00;;;;10495100;28;20197;-80
2021/07/04 11:45:13;;;;;;;3.03;1.08;;;;;17.40;100484.00;;;;10487217;28;20197;-79
2021/07/04 11:50:15;;;;;;;1.20;0.98;;;;;17.60;100477.00;;;;10467485;28;20687;-79
2021/07/04 11:55:17;;;;;;;1.40;0.80;;;;;17.50;100453.00;;;;10468531;28;20220;-79
2021/07/04 12:00:20;;;;;;;4.15;1.77;;;;;17.10;100431.00;;;;10455385;28;20197;-80
2021/07/04 12:05:22;;;;;;;0.93;0.82;;;;;16.90;100408.00;;;;10437357;28;20213;-80
2021/07/04 12:10:24;;;;;;;1.25;0.70;;;;;16.90;100389.00;;;;10435919;28;20209;-80
2021/07/04 12:15:29;;;;;;;0.50;0.50;;;;;16.80;100382.00;;;;10452570;28;20898;-81
2021/07/04 12:20:32;;;;;;;0.97;0.70;;;;;16.70;100384.00;;;;10468045;28;20216;-81
2021/07/04 12:25:46;;;;;;;1.48;0.60;;;;;16.80;100367.00;;;;10440103;28;20208;-81
2021/07/04 12:30:51;;;;;;;1.83;0.77;;;;;16.80;100386.00;;;;10468359;28;20205;-81
2021/07/04 12:36:07;;;;;;;1.93;1.00;;;;;17.20;100393.00;;;;10468407;28;20240;-81
2021/07/04 12:41:11;;;;;;;2.80;0.82;;;;;17.80;100392.00;;;;10451105;28;20192;-80
2021/07/04 12:46:18;;;;;;;2.45;1.60;;;;;17.90;100378.00;;;;10496024;28;20299;-80
2021/07/04 12:51:35;;;;;;;1.60;1.10;;;;;18.10;100397.00;;;;10491731;28;20304;-79
2021/07/04 12:56:48;;;;;;;0.75;0.75;;;;;18.60;100392.00;;;;10508269;28;20201;-78
2021/07/04 13:01:58;;;;;;;0.82;0.70;;;;;19.20;100392.00;;;;10491968;28;20201;-78
2021/07/04 13:07:06;;;;;;;3.25;0.90;;;;;19.90;100395.00;;;;10512231;28;20193;-78
2021/07/04 13:12:20;;;;;;;0.80;0.75;;;;;20.60;100396.00;;;;10499551;28;20232;-78
2021/07/04 13:17:25;;;;;;;1.73;0.80;;;;;21.10;100404.00;;;;10532207;28;20185;-78
2021/07/04 13:22:29;;;;;;;0.82;0.70;;;;;21.60;100410.00;;;;10497889;28;20193;-78
2021/07/04 13:27:35;;;;;;;0.57;0.57;;;;;22.50;100424.00;;;;10508010;28;20552;-78
2021/07/04 13:38:01;;;;;;;0.88;0.60;;;;;22.70;100426.00;;;;10506274;28;20204;-78
2021/07/04 13:43:04;;;;;;;2.88;0.70;;;;;22.90;100423.00;;;;10455119;28;20205;-77
2021/07/04 13:48:13;;;;;;;0.98;0.57;;;;;24.20;100425.00;;;;10511267;28;20193;-78
2021/07/04 13:53:16;;;;;;;0.98;0.70;;;;;26.10;100418.00;;;;10471898;28;20209;-78
2021/07/04 13:58:18;;;;;;;3.33;0.70;;;;;26.70;100420.00;;;;10480101;28;20200;-78
2021/07/04 14:03:21;;;;;;;0.95;0.60;;;;;27.60;100419.00;;;;10511916;28;20548;-79
2021/07/04 14:08:23;;;;;;;0.80;0.80;;;;;29.90;100411.00;;;;10480866;28;20205;-79
2021/07/04 14:13:25;;;;;;;1.95;0.50;;;;;30.50;100424.00;;;;10527645;28;20742;-79
2021/07/04 14:18:27;;;;;;;0.82;0.50;;;;;29.20;100411.00;;;;10470776;28;20248;-79
2021/07/04 14:23:29;;;;;;;0.30;0.30;;;;;28.00;100409.00;;;;10468303;28;20204;-79
2021/07/04 14:28:31;;;;;;;0.82;0.50;;;;;27.80;100412.00;;;;10488886;28;20552;-79
2021/07/04 14:33:33;;;;;;;0.75;0.60;;;;;28.50;100400.00;;;;10488133;28;20217;-79
2021/07/04 14:38:37;;;;;;;2.10;0.50;;;;;28.60;100396.00;;;;10487052;28;20235;-80
2021/07/04 14:43:39;;;;;;;1.05;0.63;;;;;31.00;100402.00;;;;10474689;28;20197;-79
2021/07/04 14:48:41;;;;;;;1.80;0.65;;;;;35.20;100400.00;;;;10496589;28;20682;-81
2021/07/04 14:53:43;;;;;;;1.67;0.63;;;;;36.60;100397.00;;;;10481045;28;20204;-80
2021/07/04 14:58:48;;;;;;;0.80;0.60;;;;;36.30;100400.00;;;;10470124;28;20243;-80
2021/07/04 15:03:51;;;;;;;0.95;0.52;;;;;36.90;100415.00;;;;10487014;28;20699;-80
2021/07/04 15:08:53;;;;;;;3.83;0.95;;;;;29.60;100394.00;;;;10484082;28;20213;-80
2021/07/04 15:13:55;;;;;;;2.50;0.90;;;;;30.60;100386.00;;;;10512185;28;20192;-80
2021/07/04 15:18:58;;;;;;;1.05;0.80;;;;;33.80;100377.00;;;;10494556;28;20231;-80
2021/07/04 15:24:00;;;;;;;0.75;0.60;;;;;36.00;100362.00;;;;10496341;28;20193;-80
2021/07/04 15:29:04;;;;;;;1.02;0.70;;;;;37.10;100371.00;;;;10494535;28;20209;-80
2021/07/04 15:34:06;;;;;;;1.38;0.98;;;;;36.80;100360.00;;;;10511073;28;20215;-80
2021/07/04 15:39:10;;;;;;;0.82;0.70;;;;;34.50;100391.00;;;;10495005;28;20196;-81
2021/07/04 15:44:13;;;;;;;0.50;0.50;;;;;28.00;100381.00;;;;10494083;28;20648;-80
2021/07/04 15:49:17;;;;;;;0.85;0.80;;;;;28.80;100373.00;;;;10477536;28;20266;-81
2021/07/04 15:54:19;;;;;;;2.15;0.70;;;;;28.10;100396.00;;;;10507407;28;20200;-81
2021/07/04 15:59:20;;;;;;;0.75;0.63;;;;;26.20;100390.00;;;;10535637;28;20234;-81
2021/07/04 16:04:22;;;;;;;0.68;0.57;;;;;24.70;100383.00;;;;10519070;28;20188;-79
2021/07/04 16:09:24;;;;;;;0.60;0.50;;;;;24.40;100380.00;;;;10552044;28;20216;-80
2021/07/04 16:14:27;;;;;;;1.98;0.77;;;;;24.30;100384.00;;;;10535783;28;20215;-79
2021/07/04 16:19:28;;;;;;;0.70;0.70;;;;;23.70;100386.00;;;;10551253;28;20253;-79
2021/07/04 16:24:31;;;;;;;0.50;0.50;;;;;23.20;100379.00;;;;10551741;28;20212;-80
2021/07/04 16:29:33;;;;;;;1.38;0.50;;;;;23.40;100374.00;;;;10552137;28;20620;-80
2021/07/04 16:34:35;;;;;;;0.60;0.60;;;;;23.20;100387.00;;;;10543171;28;20312;-79
2021/07/04 16:39:37;;;;;;;0.70;0.70;;;;;22.60;100385.00;;;;10492178;28;20254;-79
2021/07/04 16:44:39;;;;;;;0.60;0.60;;;;;22.20;100387.00;;;;10501011;28;20671;-79
2021/07/04 16:49:42;;;;;;;2.35;0.52;;;;;21.60;100391.00;;;;10500136;28;20220;-79
2021/07/04 16:54:44;;;;;;;1.60;0.52;;;;;21.60;100396.00;;;;10540177;28;20874;-80
2021/07/04 16:59:47;;;;;;;1.73;0.60;;;;;21.50;100397.00;;;;10558557;28;20195;-80
2021/07/04 17:04:49;;;;;;;1.15;0.77;;;;;21.10;100409.00;;;;10539914;28;20215;-80
2021/07/04 17:09:51;;;;;;;2.75;0.70;;;;;20.90;100419.00;;;;10515415;28;20601;-80
2021/07/04 17:14:52;;;;;;;0.90;0.60;;;;;21.00;100417.00;;;;10482430;28;20200;-79
2021/07/04 17:19:54;;;;;;;0.60;0.60;;;;;21.00;100412.00;;;;10498959;28;20209;-80
2021/07/04 17:24:56;;;;;;;0.70;0.70;;;;;21.00;100408.00;;;;10525267;28;20326;-79
2021/07/04 17:29:59;;;;;;;1.65;0.70;;;;;21.00;100403.00;;;;10499479;28;20659;-79
2021/07/04 17:35:03;;;;;;;0.60;0.60;;;;;20.90;100400.00;;;;10482663;28;20216;-79
2021/07/04 17:40:06;;;;;;;0.60;0.60;;;;;20.90;100402.00;;;;10488495;28;20201;-79
2021/07/04 17:45:09;;;;;;;2.05;0.93;;;;;20.60;100405.00;;;;10473016;28;20190;-79
2021/07/04 17:50:12;;;;;;;1.35;1.00;;;;;20.50;100404.00;;;;10514959;28;20204;-79
2021/07/04 17:55:15;;;;;;;3.58;1.30;;;;;20.70;100416.00;;;;10523460;28;20188;-79
2021/07/04 18:00:18;;;;;;;0.98;0.80;;;;;20.80;100409.00;;;;10574002;28;20179;-79
2021/07/04 18:05:20;;;;;;;1.42;1.00;;;;;21.00;100415.00;;;;10540308;28;20191;-79
2021/07/04 18:10:22;;;;;;;1.63;1.52;;;;;20.70;100416.00;;;;10556872;28;20771;-79
2021/07/04 18:15:24;;;;;;;3.25;1.38;;;;;20.50;100409.00;;;;10557025;28;20246;-79
2021/07/04 18:20:45;;;;;;;1.63;1.52;;;;;20.30;100397.00;;;;10559401;28;20188;-79
2021/07/04 18:25:47;;;;;;;2.63;1.85;;;;;20.00;100400.00;;;;10482352;28;20198;-79
2021/07/04 18:30:50;;;;;;;3.30;1.52;;;;;19.80;100402.00;;;;10506550;28;20212;-79
2021/07/04 18:35:52;;;;;;;2.22;1.70;;;;;19.80;100397.00;;;;10489309;28;20286;-79
2021/07/04 18:40:55;;;;;;;2.00;1.60;;;;;19.70;100401.00;;;;10488536;28;20251;-79
2021/07/04 18:45:58;;;;;;;1.90;1.80;;;;;19.50;100395.00;;;;10472192;28;20198;-79
2021/07/04 18:51:02;;;;;;;1.80;1.20;;;;;19.50;100396.00;;;;10471900;28;20209;-79
2021/07/04 18:56:05;;;;;;;3.47;2.08;;;;;19.40;100395.00;;;;10549037;28;20195;-79
2021/07/04 19:01:07;;;;;;;2.45;1.67;;;;;19.30;100391.00;;;;10535511;28;20197;-79
2021/07/04 19:06:12;;;;;;;3.88;1.52;;;;;19.30;100373.00;;;;10486247;28;20189;-79
2021/07/04 19:11:18;;;;;;;2.38;1.75;;;;;19.30;100369.00;;;;10488106;28;20209;-78
2021/07/04 19:16:20;;;;;;;2.85;1.65;;;;;19.40;100370.00;;;;10470602;28;20193;-79
2021/07/04 19:21:24;;;;;;;1.95;1.75;;;;;19.30;100367.00;;;;10486943;28;20644;-79
2021/07/04 19:26:26;;;;;;;2.70;1.15;;;;;19.00;100361.00;;;;10523440;28;20196;-79
2021/07/04 19:31:28;;;;;;;1.88;1.15;;;;;18.90;100368.00;;;;10527928;28;20607;-78
2021/07/04 19:36:30;;;;;;;1.40;1.30;;;;;18.60;100359.00;;;;10510639;28;20197;-79
2021/07/04 19:41:33;;;;;;;3.45;1.02;;;;;18.40;100366.00;;;;10511222;28;20189;-78
2021/07/04 19:46:35;;;;;;;1.27;1.00;;;;;18.30;100364.00;;;;10546412;28;20184;-78
2021/07/04 19:51:38;;;;;;;2.70;1.20;;;;;18.20;100375.00;;;;10494673;28;20244;-79
2021/07/04 19:56:44;;;;;;;1.90;1.58;;;;;18.20;100378.00;;;;10510903;28;20200;-79
2021/07/04 20:01:46;;;;;;;2.30;1.10;;;;;18.30;100383.00;;;;10470011;28;20196;-79
2021/07/04 20:06:49;;;;;;;2.25;1.73;;;;;18.30;100382.00;;;;10510883;28;20189;-78
2021/07/04 20:11:52;;;;;;;1.10;1.00;;;;;18.40;100389.00;;;;10494340;28;20557;-79
2021/07/04 20:16:54;;;;;;;1.42;1.10;;;;;18.40;100389.00;;;;10510045;28;20192;-79
2021/07/04 20:21:57;;;;;;;1.60;1.40;;;;;18.30;100385.00;;;;10526709;28;20189;-79
2021/07/04 20:26:58;;;;;;;1.52;0.90;;;;;18.30;100389.00;;;;10492855;28;20773;-79
2021/07/04 20:32:01;;;;;;;2.38;1.40;;;;;18.30;100405.00;;;;10509089;28;20246;-79
2021/07/04 20:37:03;;;;;;;3.85;0.90;;;;;18.20;100406.00;;;;10508525;28;20683;-79
2021/07/04 20:42:06;;;;;;;2.45;0.88;;;;;18.20;100402.00;;;;10508834;28;20258;-78
2021/07/04 20:47:09;;;;;;;1.10;0.82;;;;;18.20;100412.00;;;;10524774;28;20193;-78
2021/07/04 20:52:11;;;;;;;1.95;1.10;;;;;18.20;100412.00;;;;10508171;28;20216;-78
2021/07/04 20:57:12;;;;;;;1.05;1.00;;;;;18.20;100409.00;;;;10467959;28;20205;-79
2021/07/04 21:02:14;;;;;;;1.45;1.00;;;;;18.20;100399.00;;;;10483902;28;20193;-78
2021/07/04 21:07:16;;;;;;;1.15;1.00;;;;;18.20;100401.00;;;;10434529;28;20193;-78
2021/07/04 21:12:18;;;;;;;1.13;0.90;;;;;18.10;100403.00;;;;10450371;28;20217;-78
2021/07/04 21:17:20;;;;;;;3.55;1.10;;;;;18.10;100401.00;;;;10483641;28;20212;-78
2021/07/04 21:22:22;;;;;;;1.88;0.77;;;;;18.00;100393.00;;;;10482642;28;20178;-78
2021/07/04 21:27:24;;;;;;;2.80;1.00;;;;;17.90;100400.00;;;;10485969;28;20197;-78
2021/07/04 21:32:26;;;;;;;3.60;0.80;;;;;17.80;100406.00;;;;10473815;28;20222;-78
2021/07/04 21:37:28;;;;;;;0.95;0.70;;;;;17.70;100400.00;;;;10472345;28;20716;-77
2021/07/04 21:42:30;;;;;;;1.20;0.85;;;;;17.60;100415.00;;;;10473271;28;20186;-78
2021/07/04 21:47:32;;;;;;;1.45;0.95;;;;;17.50;100409.00;;;;10473138;28;20255;-78
2021/07/04 21:52:34;;;;;;;2.00;1.02;;;;;17.30;100411.00;;;;10513010;28;20279;-78
2021/07/04 21:57:38;;;;;;;3.28;1.15;;;;;17.20;100412.00;;;;10497696;28;20200;-78
2021/07/04 22:02:40;;;;;;;4.32;1.20;;;;;17.20;100401.00;;;;10480841;28;20254;-78
2021/07/04 22:07:44;;;;;;;3.45;1.25;;;;;17.30;100404.00;;;;10514366;28;20280;-78
2021/07/04 22:12:48;;;;;;;2.50;1.88;;;;;17.50;100411.00;;;;10496511;28;20215;-78
2021/07/04 22:17:51;;;;;;;3.53;2.00;;;;;17.60;100395.00;;;;10496500;28;20293;-78
2021/07/04 22:22:57;;;;;;;2.78;1.80;;;;;17.70;100387.00;;;;10531131;28;20243;-78
2021/07/04 22:28:05;;;;;;;3.90;1.92;;;;;17.60;100392.00;;;;10537908;28;20590;-78
2021/07/04 22:33:07;;;;;;;4.53;1.67;;;;;17.50;100382.00;;;;10521881;28;20224;-78
2021/07/04 22:38:09;;;;;;;3.10;1.70;;;;;17.30;100386.00;;;;10569714;28;20196;-78
2021/07/04 22:43:11;;;;;;;1.60;1.50;;;;;17.20;100380.00;;;;10571060;28;20196;-78
2021/07/04 22:48:14;;;;;;;1.58;1.45;;;;;17.20;100384.00;;;;10553365;28;20559;-78
2021/07/04 22:53:19;;;;;;;1.45;1.30;;;;;17.20;100383.00;;;;10537031;28;20207;-78
2021/07/04 22:58:22;;;;;;;4.18;1.55;;;;;17.20;100379.00;;;;10536826;28;20211;-78
2021/07/04 23:03:28;;;;;;;1.60;1.50;;;;;17.20;100388.00;;;;10496730;28;20648;-78
2021/07/04 23:08:31;;;;;;;1.70;1.55;;;;;17.10;100391.00;;;;10486576;28;20556;-78
2021/07/04 23:13:33;;;;;;;2.20;1.50;;;;;17.10;100406.00;;;;10453500;28;20205;-78
2021/07/04 23:18:35;;;;;;;1.75;1.40;;;;;17.00;100399.00;;;;10436682;28;20194;-78
2021/07/04 23:23:37;;;;;;;4.35;1.70;;;;;16.90;100398.00;;;;10482636;28;20197;-78
2021/07/04 23:28:39;;;;;;;4.70;1.60;;;;;16.90;100400.00;;;;10474565;28;20197;-78
2021/07/04 23:33:41;;;;;;;4.05;1.88;;;;;16.80;100409.00;;;;10475081;28;20252;-78
2021/07/04 23:38:44;;;;;;;2.33;1.60;;;;;16.80;100425.00;;;;10451747;28;20201;-78
2021/07/04 23:43:54;;;;;;;6.03;1.63;;;;;16.80;100446.00;;;;10469914;28;20269;-78
2021/07/04 23:48:57;;;;;;;3.23;1.90;;;;;16.60;100444.00;;;;10451776;28;20200;-79
2021/07/04 23:53:59;;;;;;;2.53;1.70;;;;;16.30;100447.00;;;;10498284;28;21012;-79
2021/07/04 23:59:02;;;;;;;2.27;1.30;;;;;15.50;100451.00;;;;10504452;28;20195;-81
